createdAt,value
2017-09-21T00:01:39.499Z,17.20
2017-09-21T00:04:07.373Z,17.10
2017-09-21T00:06:35.329Z,17.10
2017-09-21T00:09:03.311Z,17.20
2017-09-21T00:11:31.149Z,17.20
2017-09-21T00:13:59.098Z,17.20
2017-09-21T00:16:27.026Z,17.30
2017-09-21T00:18:54.898Z,17.20
2017-09-21T00:21:22.803Z,17.20
2017-09-21T00:23:50.681Z,17.20
2017-09-21T00:26:18.497Z,17.20
2017-09-21T00:28:47.170Z,17.10
2017-09-21T00:31:15.825Z,17.10
2017-09-21T00:33:43.630Z,17.10
2017-09-21T00:36:12.293Z,17.00
2017-09-21T00:38:40.236Z,16.90
2017-09-21T00:41:08.225Z,16.80
2017-09-21T00:43:36.271Z,16.60
2017-09-21T00:46:04.153Z,16.60
2017-09-21T00:48:32.099Z,16.60
2017-09-21T00:51:00.120Z,16.60
2017-09-21T00:53:28.018Z,16.60
2017-09-21T00:55:55.961Z,16.50
2017-09-21T00:58:23.957Z,16.50
2017-09-21T01:00:51.823Z,16.40
2017-09-21T01:03:20.519Z,16.40
2017-09-21T01:05:48.483Z,16.40
2017-09-21T01:08:16.405Z,16.40
2017-09-21T01:10:44.379Z,16.30
2017-09-21T01:13:12.290Z,16.30
2017-09-21T01:15:40.200Z,16.30
2017-09-21T01:18:08.202Z,16.20
2017-09-21T01:20:36.185Z,16.20
2017-09-21T01:23:04.087Z,16.30
2017-09-21T01:25:32.121Z,16.20
2017-09-21T01:28:00.077Z,16.20
2017-09-21T01:30:27.950Z,16.20
2017-09-21T01:32:55.822Z,16.20
2017-09-21T01:35:23.706Z,16.30
2017-09-21T01:37:51.603Z,16.30
2017-09-21T01:40:19.590Z,16.20
2017-09-21T01:42:47.485Z,16.20
2017-09-21T01:45:15.307Z,16.10
2017-09-21T01:47:44.071Z,16.10
2017-09-21T01:50:11.923Z,16.00
2017-09-21T01:52:39.815Z,16.10
2017-09-21T01:55:07.734Z,16.20
2017-09-21T01:57:35.621Z,16.20
2017-09-21T02:00:03.495Z,16.10
2017-09-21T02:02:31.468Z,16.20
2017-09-21T02:04:59.303Z,16.20
2017-09-21T02:07:27.151Z,16.20
2017-09-21T02:09:55.060Z,16.20
2017-09-21T02:12:22.941Z,16.20
2017-09-21T02:14:50.762Z,16.10
2017-09-21T02:17:18.642Z,16.10
2017-09-21T02:19:46.514Z,16.10
2017-09-21T02:22:14.477Z,16.10
2017-09-21T02:24:42.448Z,16.10
2017-09-21T02:27:10.323Z,16.00
2017-09-21T02:29:38.140Z,16.00
2017-09-21T02:32:06.113Z,16.00
2017-09-21T02:34:33.983Z,16.00
2017-09-21T02:37:01.893Z,16.00
2017-09-21T02:39:29.700Z,16.00
2017-09-21T02:41:57.579Z,16.00
2017-09-21T02:44:25.380Z,16.00
2017-09-21T02:46:53.333Z,16.00
2017-09-21T02:49:21.236Z,15.90
2017-09-21T02:51:49.102Z,15.90
2017-09-21T02:54:17.046Z,15.90
2017-09-21T02:56:44.944Z,15.90
2017-09-21T02:59:12.829Z,15.90
2017-09-21T03:01:40.743Z,15.90
2017-09-21T03:04:08.599Z,15.90
2017-09-21T03:06:36.508Z,15.90
2017-09-21T03:09:05.206Z,15.90
2017-09-21T03:11:33.837Z,15.90
2017-09-21T03:14:01.781Z,15.80
2017-09-21T03:16:29.620Z,15.90
2017-09-21T03:18:57.488Z,15.90
2017-09-21T03:21:25.397Z,15.90
2017-09-21T03:23:53.248Z,15.80
2017-09-21T03:26:21.081Z,15.90
2017-09-21T03:28:48.995Z,15.90
2017-09-21T03:31:16.804Z,15.80
2017-09-21T03:33:45.606Z,15.80
2017-09-21T03:36:13.510Z,15.80
2017-09-21T03:38:41.464Z,15.80
2017-09-21T03:41:09.355Z,15.80
2017-09-21T03:43:39.868Z,15.70
2017-09-21T03:46:07.811Z,15.70
2017-09-21T03:48:35.768Z,15.70
2017-09-21T03:51:03.654Z,15.70
2017-09-21T03:53:31.491Z,15.70
2017-09-21T03:55:59.425Z,15.70
2017-09-21T03:58:27.281Z,15.70
2017-09-21T04:00:55.184Z,15.70
2017-09-21T04:03:23.133Z,15.60
2017-09-21T04:05:51.805Z,15.60
2017-09-21T04:08:19.885Z,15.60
2017-09-21T04:10:48.621Z,15.60
2017-09-21T04:13:16.426Z,15.50
2017-09-21T04:15:44.305Z,15.60
2017-09-21T04:18:12.197Z,15.60
2017-09-21T04:20:40.857Z,15.50
2017-09-21T04:23:08.723Z,15.50
2017-09-21T04:25:36.572Z,15.50
2017-09-21T04:28:04.384Z,15.50
2017-09-21T04:30:32.270Z,15.50
2017-09-21T04:33:00.832Z,15.40
2017-09-21T04:35:28.664Z,15.40
2017-09-21T04:37:56.516Z,15.40
2017-09-21T04:40:24.501Z,15.40
2017-09-21T04:45:50.007Z,15.40
2017-09-21T04:48:17.885Z,15.30
2017-09-21T04:50:45.817Z,15.40
2017-09-21T04:53:13.823Z,15.30
2017-09-21T04:55:43.590Z,15.30
2017-09-21T04:58:11.419Z,15.30
2017-09-21T05:00:39.379Z,15.30
2017-09-21T05:03:07.176Z,15.30
2017-09-21T05:05:36.702Z,15.40
2017-09-21T05:08:04.651Z,15.40
2017-09-21T05:10:32.645Z,15.30
2017-09-21T05:13:00.487Z,15.30
2017-09-21T05:15:29.129Z,15.40
2017-09-21T05:17:57.354Z,15.30
2017-09-21T05:20:25.148Z,15.30
2017-09-21T05:22:53.416Z,15.30
2017-09-21T05:25:21.306Z,15.30
2017-09-21T05:27:50.209Z,15.30
2017-09-21T05:30:18.047Z,15.30
2017-09-21T05:32:46.396Z,15.30
2017-09-21T05:35:14.356Z,15.30
2017-09-21T05:37:47.540Z,15.30
2017-09-21T05:40:15.470Z,15.30
2017-09-21T05:42:43.239Z,15.30
2017-09-21T05:45:11.057Z,15.30
2017-09-21T05:47:38.907Z,15.30
2017-09-21T05:50:06.724Z,15.40
2017-09-21T05:52:35.223Z,15.40
2017-09-21T05:55:03.998Z,15.40
2017-09-21T05:57:32.964Z,15.40
2017-09-21T06:00:00.749Z,15.40
2017-09-21T06:02:28.754Z,15.40
2017-09-21T06:04:56.621Z,15.40
2017-09-21T06:07:24.508Z,15.40
2017-09-21T06:09:58.082Z,15.40
2017-09-21T06:12:25.948Z,15.40
2017-09-21T06:14:54.702Z,15.50
2017-09-21T06:17:23.496Z,15.50
2017-09-21T06:19:51.361Z,15.60
2017-09-21T06:22:19.288Z,15.60
2017-09-21T06:24:47.164Z,15.60
2017-09-21T06:27:15.089Z,15.70
2017-09-21T06:29:43.111Z,15.70
2017-09-21T06:32:10.987Z,15.70
2017-09-21T06:34:38.921Z,15.80
2017-09-21T06:37:06.742Z,15.80
2017-09-21T06:39:34.657Z,15.90
2017-09-21T06:42:03.325Z,15.90
2017-09-21T06:44:32.251Z,16.00
2017-09-21T06:47:00.218Z,16.00
2017-09-21T06:49:29.411Z,16.10
2017-09-21T06:51:57.403Z,16.00
2017-09-21T06:54:28.504Z,16.10
2017-09-21T06:56:56.524Z,16.10
2017-09-21T06:59:29.169Z,16.10
2017-09-21T07:01:57.229Z,16.00
2017-09-21T07:07:00.973Z,16.10
2017-09-21T07:09:31.531Z,16.20
2017-09-21T07:11:59.452Z,16.20
2017-09-21T07:14:27.429Z,16.20
2017-09-21T07:16:55.328Z,16.20
2017-09-21T07:19:23.157Z,16.20
2017-09-21T07:21:51.116Z,16.20
2017-09-21T07:24:18.989Z,16.30
2017-09-21T07:26:46.761Z,16.40
2017-09-21T07:29:14.751Z,16.40
2017-09-21T07:31:42.701Z,16.50
2017-09-21T07:34:11.373Z,16.50
2017-09-21T07:36:39.234Z,16.40
2017-09-21T07:39:07.099Z,16.60
2017-09-21T07:41:35.099Z,16.60
2017-09-21T07:44:02.917Z,16.60
2017-09-21T07:46:30.851Z,16.70
2017-09-21T07:48:58.851Z,16.70
2017-09-21T07:51:26.736Z,16.70
2017-09-21T07:53:54.624Z,16.80
2017-09-21T07:56:22.567Z,16.80
2017-09-21T07:58:50.411Z,16.70
2017-09-21T08:01:18.280Z,16.60
2017-09-21T08:03:46.233Z,16.90
2017-09-21T08:06:14.009Z,16.90
2017-09-21T08:08:41.904Z,16.90
2017-09-21T08:11:09.871Z,17.00
2017-09-21T08:13:37.717Z,17.00
2017-09-21T08:16:05.573Z,17.00
2017-09-21T08:18:34.183Z,17.10
2017-09-21T08:21:01.975Z,17.10
2017-09-21T08:23:30.277Z,17.20
2017-09-21T08:25:58.182Z,17.30
2017-09-21T08:28:26.033Z,17.30
2017-09-21T08:30:53.801Z,17.30
2017-09-21T08:33:21.610Z,17.00
2017-09-21T08:35:49.659Z,17.00
2017-09-21T08:38:17.468Z,17.00
2017-09-21T08:40:45.431Z,17.00
2017-09-21T08:43:13.313Z,17.00
2017-09-21T08:45:41.131Z,16.70
2017-09-21T08:48:09.098Z,16.80
2017-09-21T08:50:37.014Z,17.00
2017-09-21T08:53:08.010Z,17.10
2017-09-21T08:55:35.925Z,17.10
2017-09-21T08:58:04.648Z,17.10
2017-09-21T09:00:32.609Z,17.10
2017-09-21T09:03:00.386Z,17.20
2017-09-21T09:05:28.195Z,17.30
2017-09-21T09:07:56.242Z,17.40
2017-09-21T09:10:24.918Z,17.40
2017-09-21T09:12:52.761Z,17.40
2017-09-21T09:15:20.613Z,17.50
2017-09-21T09:17:48.634Z,17.50
2017-09-21T09:20:16.411Z,17.60
2017-09-21T09:22:44.968Z,17.60
2017-09-21T09:25:12.821Z,17.60
2017-09-21T09:27:40.740Z,17.70
2017-09-21T09:30:08.562Z,17.70
2017-09-21T09:32:36.494Z,17.80
2017-09-21T09:35:04.391Z,17.80
2017-09-21T09:37:32.377Z,17.90
2017-09-21T09:40:00.237Z,17.90
2017-09-21T09:42:28.165Z,17.90
2017-09-21T09:44:56.070Z,17.90
2017-09-21T09:47:23.930Z,17.90
2017-09-21T09:49:51.857Z,18.00
2017-09-21T09:52:19.788Z,18.00
2017-09-21T09:54:47.701Z,18.10
2017-09-21T09:57:15.626Z,18.20
2017-09-21T09:59:43.455Z,18.30
2017-09-21T10:02:11.333Z,18.30
2017-09-21T10:04:39.279Z,18.30
2017-09-21T10:07:07.976Z,18.30
2017-09-21T10:09:35.842Z,18.20
2017-09-21T10:12:03.744Z,18.30
2017-09-21T10:14:31.682Z,18.30
2017-09-21T10:16:59.485Z,18.30
2017-09-21T10:19:27.391Z,18.40
2017-09-21T10:21:55.488Z,18.40
2017-09-21T10:24:24.140Z,18.40
2017-09-21T10:26:52.100Z,18.40
2017-09-21T10:29:19.974Z,18.50
2017-09-21T10:31:47.849Z,18.50
2017-09-21T10:34:15.665Z,18.60
2017-09-21T10:36:44.361Z,18.60
2017-09-21T10:39:12.264Z,18.60
2017-09-21T10:41:40.190Z,18.60
2017-09-21T10:44:07.983Z,18.60
2017-09-21T10:46:35.839Z,18.60
2017-09-21T10:49:03.700Z,18.70
2017-09-21T10:51:31.670Z,18.70
2017-09-21T10:53:59.527Z,18.70
2017-09-21T10:56:28.157Z,18.80
2017-09-21T10:58:56.076Z,18.70
2017-09-21T11:01:23.997Z,18.80
2017-09-21T11:03:51.922Z,18.80
2017-09-21T11:06:20.708Z,18.90
2017-09-21T11:08:48.675Z,18.90
2017-09-21T11:11:16.555Z,18.90
2017-09-21T11:13:44.428Z,18.90
2017-09-21T11:16:13.084Z,18.90
2017-09-21T11:18:40.920Z,18.90
2017-09-21T11:21:08.895Z,19.00
2017-09-21T11:23:36.787Z,19.00
2017-09-21T11:26:04.654Z,19.10
2017-09-21T11:28:32.543Z,19.10
2017-09-21T11:31:00.388Z,19.10
2017-09-21T11:33:28.320Z,19.20
2017-09-21T11:35:56.249Z,19.20
2017-09-21T11:38:24.157Z,19.20
2017-09-21T11:40:52.020Z,19.20
2017-09-21T11:43:20.647Z,19.20
2017-09-21T11:45:48.579Z,19.10
2017-09-21T11:48:16.553Z,19.20
2017-09-21T11:50:45.230Z,19.30
2017-09-21T11:53:14.004Z,19.30
2017-09-21T11:55:41.804Z,19.20
2017-09-21T11:58:09.919Z,19.30
2017-09-21T12:00:37.872Z,19.30
2017-09-21T12:03:05.724Z,19.30
2017-09-21T12:05:33.702Z,19.40
2017-09-21T12:08:01.516Z,19.40
2017-09-21T12:10:29.480Z,19.40
2017-09-21T12:12:57.365Z,19.40
2017-09-21T12:15:25.296Z,19.40
2017-09-21T12:17:53.153Z,19.40
2017-09-21T12:20:21.114Z,19.40
2017-09-21T12:22:49.014Z,19.40
2017-09-21T12:25:18.162Z,19.40
2017-09-21T12:27:46.167Z,19.50
2017-09-21T12:30:14.095Z,19.50
2017-09-21T12:32:42.847Z,19.50
2017-09-21T12:35:10.789Z,19.40
2017-09-21T12:37:38.626Z,19.60
2017-09-21T12:40:07.592Z,19.70
2017-09-21T12:42:35.395Z,19.70
2017-09-21T12:45:03.260Z,19.80
2017-09-21T12:47:31.164Z,19.70
2017-09-21T12:49:58.945Z,19.70
2017-09-21T12:52:26.815Z,19.70
2017-09-21T12:54:54.608Z,19.70
2017-09-21T12:57:22.394Z,19.80
2017-09-21T12:59:50.306Z,19.90
2017-09-21T13:02:18.322Z,19.90
2017-09-21T13:04:46.251Z,19.90
2017-09-21T13:07:14.129Z,19.80
2017-09-21T13:09:42.048Z,19.80
2017-09-21T13:12:10.467Z,20.00
2017-09-21T13:14:38.343Z,20.00
2017-09-21T13:17:06.158Z,20.00
2017-09-21T13:19:33.954Z,20.00
2017-09-21T13:22:01.983Z,20.00
2017-09-21T13:24:29.935Z,20.00
2017-09-21T13:26:59.800Z,20.10
2017-09-21T13:29:28.395Z,20.10
2017-09-21T13:31:56.396Z,20.00
2017-09-21T13:34:24.341Z,20.00
2017-09-21T13:36:52.216Z,20.10
2017-09-21T13:39:20.076Z,20.20
2017-09-21T13:41:49.232Z,20.10
2017-09-21T13:44:17.118Z,20.10
2017-09-21T13:46:45.034Z,20.10
2017-09-21T13:49:12.860Z,20.10
2017-09-21T13:51:40.677Z,20.10
2017-09-21T13:54:08.443Z,20.10
2017-09-21T13:56:36.208Z,20.10
2017-09-21T13:59:04.072Z,20.20
2017-09-21T14:01:31.878Z,20.30
2017-09-21T14:03:59.639Z,20.30
2017-09-21T14:06:27.489Z,20.40
2017-09-21T14:08:55.292Z,20.50
2017-09-21T14:11:23.179Z,20.80
2017-09-21T14:13:51.988Z,21.00
2017-09-21T14:16:19.777Z,21.00
2017-09-21T14:18:47.498Z,20.90
2017-09-21T14:21:15.320Z,20.90
2017-09-21T14:23:43.147Z,21.00
2017-09-21T14:26:11.081Z,21.10
2017-09-21T14:28:38.999Z,21.00
2017-09-21T14:31:06.846Z,20.90
2017-09-21T14:33:34.752Z,21.00
2017-09-21T14:36:02.526Z,21.10
2017-09-21T14:38:30.384Z,21.10
2017-09-21T14:40:58.184Z,21.00
2017-09-21T14:43:26.084Z,20.80
2017-09-21T14:45:53.976Z,20.80
2017-09-21T14:48:21.887Z,20.90
2017-09-21T14:50:49.750Z,21.10
2017-09-21T14:53:17.699Z,21.40
2017-09-21T14:55:45.557Z,21.20
2017-09-21T14:58:13.476Z,21.20
2017-09-21T15:00:41.811Z,21.20
2017-09-21T15:03:10.502Z,21.10
2017-09-21T15:05:39.745Z,21.00
2017-09-21T15:08:07.701Z,20.90
2017-09-21T15:10:35.440Z,21.10
2017-09-21T15:13:03.283Z,21.10
2017-09-21T15:15:31.010Z,21.10
2017-09-21T15:17:58.745Z,21.00
2017-09-21T15:20:26.576Z,21.00
2017-09-21T15:22:54.318Z,21.00
2017-09-21T15:25:22.111Z,20.90
2017-09-21T15:27:49.844Z,20.80
2017-09-21T15:30:17.663Z,20.90
2017-09-21T15:32:45.489Z,21.00
2017-09-21T15:35:13.283Z,21.10
2017-09-21T15:37:41.100Z,21.10
2017-09-21T15:40:08.939Z,21.10
2017-09-21T15:42:37.579Z,21.00
2017-09-21T15:45:05.437Z,21.00
2017-09-21T15:47:33.274Z,21.00
2017-09-21T15:50:01.181Z,21.10
2017-09-21T15:52:29.848Z,21.20
2017-09-21T15:54:57.740Z,21.10
2017-09-21T15:57:25.678Z,21.10
2017-09-21T15:59:53.467Z,21.10
2017-09-21T16:02:22.239Z,21.10
2017-09-21T16:04:50.084Z,21.00
2017-09-21T16:07:18.616Z,21.00
2017-09-21T16:09:47.277Z,21.00
2017-09-21T16:12:15.088Z,21.00
2017-09-21T16:14:42.968Z,21.00
2017-09-21T16:17:10.846Z,21.10
2017-09-21T16:19:38.940Z,21.10
2017-09-21T16:22:07.649Z,21.10
2017-09-21T16:24:35.428Z,21.10
2017-09-21T16:27:03.205Z,21.20
2017-09-21T16:29:31.138Z,21.10
2017-09-21T16:31:58.903Z,21.20
2017-09-21T16:34:27.837Z,21.30
2017-09-21T16:36:55.665Z,21.30
2017-09-21T16:39:27.406Z,21.40
2017-09-21T16:41:55.263Z,21.40
2017-09-21T16:44:23.112Z,21.40
2017-09-21T16:46:51.158Z,21.40
2017-09-21T16:49:20.518Z,21.50
2017-09-21T16:51:50.950Z,21.50
2017-09-21T16:54:19.499Z,21.60
2017-09-21T16:56:48.572Z,21.60
2017-09-21T16:59:23.669Z,21.60
2017-09-21T17:01:56.889Z,21.60
2017-09-21T17:04:27.175Z,21.60
2017-09-21T17:06:56.901Z,21.60
2017-09-21T17:09:31.171Z,21.60
2017-09-21T17:12:25.559Z,21.60
2017-09-21T17:15:03.879Z,21.50
2017-09-21T17:17:32.753Z,21.60
2017-09-21T17:22:38.391Z,21.60
2017-09-21T17:25:06.203Z,21.50
2017-09-21T17:27:35.848Z,21.50
2017-09-21T17:30:03.921Z,21.50
2017-09-21T17:32:31.817Z,21.40
2017-09-21T17:34:59.605Z,21.40
2017-09-21T17:37:27.588Z,21.40
2017-09-21T17:39:55.482Z,21.30
2017-09-21T17:42:24.262Z,21.40
2017-09-21T17:44:52.040Z,21.40
2017-09-21T17:47:22.757Z,21.30
2017-09-21T17:53:10.074Z,21.30
2017-09-21T17:55:52.422Z,21.30
2017-09-21T17:58:20.378Z,21.20
2017-09-21T18:00:48.128Z,21.20
2017-09-21T18:05:55.679Z,21.20
2017-09-21T18:08:24.127Z,21.20
2017-09-21T18:10:53.005Z,21.20
2017-09-21T18:13:25.471Z,21.10
2017-09-21T18:15:53.456Z,21.10
2017-09-21T18:18:23.363Z,21.10
2017-09-21T18:20:51.577Z,21.00
2017-09-21T18:23:19.650Z,21.00
2017-09-21T18:25:51.864Z,21.00
2017-09-21T18:28:27.488Z,21.00
2017-09-21T18:46:54.627Z,20.70
2017-09-21T18:52:42.144Z,20.70
2017-09-21T19:12:36.999Z,20.40
2017-09-21T19:48:04.141Z,19.70
2017-09-21T19:51:04.956Z,19.80
2017-09-21T19:59:18.087Z,19.70
2017-09-21T20:01:46.937Z,19.70
2017-09-21T20:04:14.959Z,19.70
2017-09-21T20:06:42.936Z,19.70
2017-09-21T20:09:13.596Z,19.70
2017-09-21T20:11:43.408Z,19.60
2017-09-21T20:14:11.466Z,19.60
2017-09-21T20:16:39.958Z,19.70
2017-09-21T20:19:07.839Z,19.70
2017-09-21T20:21:35.744Z,19.60
2017-09-21T20:24:12.274Z,19.60
2017-09-21T20:26:40.079Z,19.60
2017-09-21T20:29:07.912Z,19.50
2017-09-21T20:31:35.736Z,19.50
2017-09-21T20:34:04.348Z,19.40
2017-09-21T20:36:37.954Z,19.40
2017-09-21T20:39:10.009Z,19.50
2017-09-21T20:41:37.788Z,19.50
2017-09-21T20:44:06.950Z,19.50
2017-09-21T20:46:34.748Z,19.50
2017-09-21T20:49:02.559Z,19.60
2017-09-21T20:51:30.405Z,19.60
2017-09-21T20:53:58.270Z,19.60
2017-09-21T20:56:26.037Z,19.60
2017-09-21T20:58:53.849Z,19.50
2017-09-21T21:01:21.626Z,19.50
2017-09-21T21:03:50.418Z,19.50
2017-09-21T21:06:18.231Z,19.50
2017-09-21T21:08:46.022Z,19.50
2017-09-21T21:11:14.505Z,19.50
2017-09-21T21:13:43.048Z,19.40
2017-09-21T21:16:10.903Z,19.40
2017-09-21T21:18:38.691Z,19.40
2017-09-21T21:21:06.489Z,19.40
2017-09-21T21:23:35.145Z,19.40
2017-09-21T21:26:02.911Z,19.30
2017-09-21T21:28:30.668Z,19.40
2017-09-21T21:30:58.582Z,19.40
2017-09-21T21:33:26.497Z,19.40
2017-09-21T21:35:54.393Z,19.40
2017-09-21T21:38:22.358Z,19.40
2017-09-21T21:40:50.213Z,19.40
2017-09-21T21:43:18.026Z,19.40
2017-09-21T21:45:45.866Z,19.40
2017-09-21T21:48:13.632Z,19.30
2017-09-21T21:50:41.434Z,19.30
2017-09-21T21:53:09.271Z,19.30
2017-09-21T21:55:45.252Z,19.30
2017-09-21T21:58:13.296Z,19.30
2017-09-21T22:00:42.481Z,19.30
2017-09-21T22:03:10.305Z,19.20
2017-09-21T22:05:38.148Z,19.10
2017-09-21T22:08:05.935Z,19.20
2017-09-21T22:10:34.693Z,19.20
2017-09-21T22:13:02.497Z,19.20
2017-09-21T22:15:31.056Z,19.20
2017-09-21T22:17:58.933Z,19.20
2017-09-21T22:20:26.679Z,19.20
2017-09-21T22:22:54.782Z,19.20
2017-09-21T22:25:23.488Z,19.10
2017-09-21T22:27:51.384Z,19.10
2017-09-21T22:30:19.270Z,19.10
2017-09-21T22:32:47.146Z,19.10
2017-09-21T22:35:15.052Z,19.10
2017-09-21T22:37:42.945Z,19.10
2017-09-21T22:40:10.791Z,19.10
2017-09-21T22:42:38.657Z,19.10
2017-09-21T22:45:06.535Z,19.10
2017-09-21T22:47:35.162Z,19.10
2017-09-21T22:50:03.056Z,19.10
2017-09-21T22:52:30.913Z,19.10
2017-09-21T22:54:58.871Z,19.10
2017-09-21T22:57:26.792Z,19.10
2017-09-21T22:59:54.671Z,19.10
2017-09-21T23:02:23.378Z,19.00
2017-09-21T23:04:51.253Z,18.90
2017-09-21T23:07:19.101Z,18.90
2017-09-21T23:09:47.042Z,18.90
2017-09-21T23:12:14.926Z,18.90
2017-09-21T23:14:42.772Z,18.90
2017-09-21T23:17:10.737Z,18.80
2017-09-21T23:19:38.584Z,18.90
2017-09-21T23:22:06.462Z,18.90
2017-09-21T23:24:34.324Z,18.90
2017-09-21T23:27:02.188Z,18.90
2017-09-21T23:29:30.053Z,18.90
2017-09-21T23:31:57.995Z,18.90
2017-09-21T23:34:25.877Z,18.90
2017-09-21T23:36:53.742Z,18.90
2017-09-21T23:39:21.602Z,18.80
2017-09-21T23:41:49.492Z,18.90
2017-09-21T23:44:17.340Z,18.80
2017-09-21T23:46:45.194Z,18.90
2017-09-21T23:49:13.043Z,18.80
2017-09-21T23:51:40.898Z,18.90
2017-09-21T23:54:08.758Z,18.80
2017-09-21T23:56:36.674Z,18.80
2017-09-21T23:59:04.587Z,18.80
